Time;durP1;ratioP1;P1;durP2;ratioP2;P2;SDS_P1;SDS_P2;PMS_P1;PMS_P2;Temp;Humidity;BMP_temperature;BMP_pressure;BME280_temperature;BME280_humidity;BME280_pressure;Samples;Min_cycle;Max_cycle;Signal;HPM_P1;HPM_P2
2021/05/19 00:01:50;;;;;;;23.75;14.85;;;14.80;99.90;;;;;;5118399;28;20542;-75
2021/05/19 00:04:16;;;;;;;21.02;13.32;;;14.80;99.90;;;;;;5100411;28;20028;-75
2021/05/19 00:06:43;;;;;;;22.00;14.50;;;14.80;99.90;;;;;;5101422;28;20051;-76
2021/05/19 00:09:11;;;;;;;21.98;14.50;;;14.80;99.90;;;;;;5099401;28;20024;-75
2021/05/19 00:11:39;;;;;;;25.92;14.20;;;14.80;99.90;;;;;;5094663;28;20028;-75
2021/05/19 00:14:08;;;;;;;18.83;13.15;;;14.80;99.90;;;;;;5093789;28;20028;-75
2021/05/19 00:16:35;;;;;;;21.35;15.07;;;14.80;99.90;;;;;;5093590;28;20500;-75
2021/05/19 00:19:01;;;;;;;32.00;16.92;;;14.70;99.90;;;;;;5093875;28;20385;-75
2021/05/19 00:21:26;;;;;;;22.17;15.50;;;14.70;99.90;;;;;;5095311;28;20039;-75
2021/05/19 00:23:52;;;;;;;29.80;16.88;;;14.60;99.90;;;;;;5093551;28;20050;-76
2021/05/19 00:26:18;;;;;;;28.98;16.15;;;14.60;99.90;;;;;;5093805;28;20042;-75
2021/05/19 00:28:49;;;;;;;24.25;15.13;;;14.60;99.90;;;;;;5093530;28;20039;-75
2021/05/19 00:31:17;;;;;;;23.83;15.25;;;14.60;99.90;;;;;;5095006;28;20032;-75
2021/05/19 00:33:43;;;;;;;25.98;15.27;;;14.50;99.90;;;;;;5094128;28;20417;-75
2021/05/19 00:36:09;;;;;;;19.10;12.98;;;14.60;99.90;;;;;;5093648;28;20028;-75
2021/05/19 00:38:34;;;;;;;18.25;11.85;;;14.60;99.90;;;;;;5093287;28;20385;-75
2021/05/19 00:41:00;;;;;;;19.42;12.57;;;14.50;99.90;;;;;;5093522;28;20458;-75
2021/05/19 00:43:27;;;;;;;16.02;11.27;;;14.50;99.90;;;;;;5093837;28;20030;-75
2021/05/19 00:45:53;;;;;;;18.13;12.77;;;14.50;99.90;;;;;;5093526;28;20031;-77
2021/05/19 00:48:19;;;;;;;16.60;11.57;;;14.50;99.90;;;;;;5093552;28;20020;-75
2021/05/19 00:50:45;;;;;;;15.85;11.00;;;14.40;99.90;;;;;;5093115;28;20028;-75
2021/05/19 00:53:11;;;;;;;16.75;10.88;;;14.40;99.90;;;;;;5092472;28;20382;-75
2021/05/19 00:55:36;;;;;;;12.80;9.55;;;14.40;99.90;;;;;;5094762;28;20119;-75
2021/05/19 00:58:03;;;;;;;16.75;10.63;;;14.30;99.90;;;;;;5093073;28;20077;-75
2021/05/19 01:00:33;;;;;;;15.02;9.65;;;14.30;99.90;;;;;;5092958;28;20470;-75
2021/05/19 01:02:59;;;;;;;14.20;10.27;;;14.30;99.90;;;;;;5092966;28;20020;-76
2021/05/19 01:05:36;;;;;;;16.38;10.18;;;14.20;99.90;;;;;;5093211;28;20035;-75
2021/05/19 01:10:48;;;;;;;16.23;11.25;;;14.10;99.90;;;;;;5094363;28;20111;-75
2021/05/19 01:13:16;;;;;;;17.42;11.90;;;14.10;99.90;;;;;;5092693;28;20032;-75
2021/05/19 01:15:42;;;;;;;16.88;11.18;;;14.00;99.90;;;;;;5093049;28;20052;-75
2021/05/19 01:18:08;;;;;;;18.27;11.68;;;13.90;99.90;;;;;;5092905;28;20024;-75
2021/05/19 01:20:35;;;;;;;17.98;12.15;;;13.90;99.90;;;;;;5092165;28;20382;-75
2021/05/19 01:23:02;;;;;;;19.90;12.48;;;13.90;99.90;;;;;;5092890;28;20031;-75
2021/05/19 01:25:28;;;;;;;18.02;12.13;;;13.80;99.90;;;;;;5092808;28;20061;-76
2021/05/19 01:27:58;;;;;;;17.55;11.05;;;13.80;99.90;;;;;;5078987;28;20063;-75
2021/05/19 01:30:24;;;;;;;19.20;11.77;;;13.80;99.90;;;;;;5093126;28;20028;-74
2021/05/19 01:32:50;;;;;;;21.38;13.95;;;13.80;99.90;;;;;;5092666;28;20440;-74
2021/05/19 01:35:16;;;;;;;22.60;13.32;;;13.80;99.90;;;;;;5093187;28;20391;-81
2021/05/19 01:37:44;;;;;;;23.90;12.80;;;13.80;99.90;;;;;;5090481;28;20032;-78
2021/05/19 01:40:13;;;;;;;24.75;14.43;;;13.80;99.90;;;;;;5086493;28;20114;-82
2021/05/19 01:42:39;;;;;;;23.15;15.13;;;13.80;99.90;;;;;;5118825;28;20078;-83
2021/05/19 01:45:07;;;;;;;25.55;15.60;;;13.80;99.90;;;;;;5104943;28;20050;-83
2021/05/19 01:47:48;;;;;;;23.35;15.50;;;13.80;99.90;;;;;;5133085;28;20012;-84
2021/05/19 01:50:18;;;;;;;23.45;16.08;;;13.80;99.90;;;;;;5104064;28;20023;-83
2021/05/19 01:52:45;;;;;;;27.50;16.90;;;13.90;99.90;;;;;;5131494;28;20017;-84
2021/05/19 01:55:13;;;;;;;23.33;15.60;;;13.90;99.90;;;;;;5098982;28;20032;-82
2021/05/19 01:57:43;;;;;;;27.08;14.90;;;13.90;99.90;;;;;;5094134;28;20020;-82
2021/05/19 02:00:09;;;;;;;21.75;15.52;;;14.00;99.90;;;;;;5093493;28;20031;-81
2021/05/19 02:02:35;;;;;;;27.58;16.00;;;14.00;99.90;;;;;;5093209;28;20032;-81
2021/05/19 02:05:03;;;;;;;21.10;13.98;;;14.00;99.90;;;;;;5091528;28;20057;-82
2021/05/19 02:07:29;;;;;;;25.52;14.82;;;14.00;99.90;;;;;;5092612;28;20031;-82
2021/05/19 02:09:54;;;;;;;28.92;16.90;;;14.00;99.90;;;;;;5090463;28;20028;-81
2021/05/19 02:12:20;;;;;;;25.55;15.95;;;14.00;99.90;;;;;;5091341;28;20396;-82
2021/05/19 02:14:46;;;;;;;26.77;17.23;;;14.00;99.90;;;;;;5091324;28;20039;-82
2021/05/19 02:17:12;;;;;;;25.58;15.02;;;13.90;99.90;;;;;;5091959;28;20504;-82
2021/05/19 02:19:39;;;;;;;27.15;16.42;;;14.00;99.90;;;;;;5091442;28;20050;-82
2021/05/19 02:22:05;;;;;;;23.40;16.00;;;13.90;99.90;;;;;;5091536;28;20039;-82
2021/05/19 02:24:32;;;;;;;26.85;16.63;;;13.90;99.90;;;;;;5090408;28;20487;-83
2021/05/19 02:26:57;;;;;;;24.95;16.17;;;14.00;99.90;;;;;;5090578;28;20031;-82
2021/05/19 02:29:23;;;;;;;25.88;15.93;;;14.00;99.90;;;;;;5091533;28;20454;-82
2021/05/19 02:31:49;;;;;;;25.27;16.05;;;14.00;99.90;;;;;;5095658;28;20028;-82
2021/05/19 02:34:15;;;;;;;23.35;15.20;;;14.00;99.90;;;;;;5091938;28;20115;-82
2021/05/19 02:36:41;;;;;;;22.83;15.07;;;14.10;99.90;;;;;;5091305;28;20035;-80
2021/05/19 02:39:09;;;;;;;21.98;14.45;;;14.20;99.90;;;;;;5091294;28;20035;-83
2021/05/19 02:41:37;;;;;;;22.48;15.32;;;14.20;99.90;;;;;;5091028;28;20145;-82
2021/05/19 02:44:05;;;;;;;20.00;14.10;;;14.30;99.90;;;;;;5090966;28;20024;-83
2021/05/19 02:46:31;;;;;;;21.92;13.82;;;14.50;99.90;;;;;;5110908;28;20026;-83
2021/05/19 02:49:01;;;;;;;17.65;12.52;;;14.70;99.90;;;;;;5100598;28;20024;-85
2021/05/19 02:51:32;;;;;;;18.17;12.63;;;14.90;99.90;;;;;;5090104;28;20066;-83
2021/05/19 02:53:58;;;;;;;16.35;11.55;;;15.10;99.90;;;;;;5091449;28;20124;-84
2021/05/19 02:56:24;;;;;;;18.25;10.88;;;15.30;99.90;;;;;;5091314;28;20118;-84
2021/05/19 02:58:50;;;;;;;18.23;11.90;;;15.50;99.90;;;;;;5091624;28;20051;-82
2021/05/19 03:01:17;;;;;;;17.52;12.30;;;15.60;99.90;;;;;;5091997;28;20067;-82
2021/05/19 03:03:42;;;;;;;16.08;11.25;;;15.60;99.90;;;;;;5092383;28;20078;-82
2021/05/19 03:06:08;;;;;;;18.85;12.38;;;15.60;99.90;;;;;;5091802;28;20024;-82
2021/05/19 03:08:34;;;;;;;18.73;12.55;;;15.60;99.90;;;;;;5090062;28;20027;-82
2021/05/19 03:11:00;;;;;;;15.32;11.25;;;15.60;99.90;;;;;;5091698;28;20028;-81
2021/05/19 03:13:26;;;;;;;15.60;11.35;;;15.50;99.90;;;;;;5089210;28;20089;-82
2021/05/19 03:15:52;;;;;;;17.85;11.18;;;15.40;99.90;;;;;;5083321;28;20474;-82
2021/05/19 03:18:17;;;;;;;16.42;11.48;;;15.40;99.90;;;;;;5095200;28;20053;-82
2021/05/19 03:20:43;;;;;;;16.95;11.68;;;15.40;99.90;;;;;;5095587;28;20028;-82
2021/05/19 03:23:09;;;;;;;17.65;11.73;;;15.30;99.90;;;;;;5095499;28;20111;-82
2021/05/19 03:25:35;;;;;;;14.63;10.63;;;15.30;99.90;;;;;;5089791;28;20032;-82
2021/05/19 03:28:01;;;;;;;15.75;11.00;;;15.20;99.90;;;;;;5075801;28;20025;-82
2021/05/19 03:30:27;;;;;;;15.68;10.93;;;15.20;99.90;;;;;;5076722;28;20036;-82
2021/05/19 03:32:52;;;;;;;13.27;9.82;;;15.20;99.90;;;;;;5094513;28;20024;-83
2021/05/19 03:35:19;;;;;;;13.93;10.00;;;15.10;99.90;;;;;;5110738;28;20032;-77
2021/05/19 03:37:45;;;;;;;15.07;10.25;;;15.20;99.90;;;;;;5104633;28;20102;-77
2021/05/19 03:40:13;;;;;;;16.55;10.55;;;15.20;99.90;;;;;;5129551;28;20024;-79
2021/05/19 03:42:40;;;;;;;16.33;10.45;;;15.30;99.90;;;;;;5106245;28;20033;-78
2021/05/19 03:45:07;;;;;;;14.93;10.65;;;15.40;99.90;;;;;;5086740;28;20032;-79
2021/05/19 03:47:33;;;;;;;13.57;9.68;;;15.50;99.90;;;;;;5094550;28;20035;-77
2021/05/19 03:49:59;;;;;;;17.98;9.73;;;15.70;99.90;;;;;;5104296;28;20024;-77
2021/05/19 03:52:25;;;;;;;13.30;9.13;;;15.80;99.90;;;;;;5106445;28;20036;-79
2021/05/19 03:54:51;;;;;;;13.48;9.10;;;16.10;99.90;;;;;;5104036;28;20027;-77
2021/05/19 03:57:16;;;;;;;14.30;8.23;;;16.70;99.90;;;;;;5086786;28;20035;-77
2021/05/19 03:59:42;;;;;;;16.15;9.25;;;17.20;99.90;;;;;;5090958;28;20016;-77
2021/05/19 04:02:08;;;;;;;13.30;9.80;;;17.50;99.90;;;;;;5101373;28;20032;-77
2021/05/19 04:04:33;;;;;;;16.25;10.55;;;17.60;99.90;;;;;;5092973;28;20367;-77
2021/05/19 04:06:59;;;;;;;18.45;11.70;;;17.70;99.90;;;;;;5089678;28;20039;-79
2021/05/19 04:09:26;;;;;;;13.70;9.35;;;17.70;99.90;;;;;;5077834;28;20112;-75
2021/05/19 04:11:52;;;;;;;13.68;9.20;;;17.70;99.90;;;;;;5078509;28;20024;-78
2021/05/19 04:14:18;;;;;;;12.60;9.48;;;17.60;99.80;;;;;;5078940;28;20025;-76
2021/05/19 04:16:43;;;;;;;13.82;9.10;;;17.50;99.50;;;;;;5080981;28;20039;-77
2021/05/19 04:19:09;;;;;;;11.85;9.35;;;17.40;99.10;;;;;;5111541;28;20059;-78
2021/05/19 04:21:35;;;;;;;14.23;8.45;;;17.40;98.90;;;;;;5103444;28;20647;-77
2021/05/19 04:24:01;;;;;;;13.63;8.18;;;17.20;98.20;;;;;;5088379;28;20073;-77
2021/05/19 04:26:27;;;;;;;16.40;9.20;;;17.10;98.30;;;;;;5093877;28;20032;-82
2021/05/19 04:28:53;;;;;;;21.98;11.50;;;17.10;98.80;;;;;;5093049;28;20108;-71
2021/05/19 04:31:19;;;;;;;14.10;8.27;;;17.20;99.40;;;;;;5094769;28;20032;-74
2021/05/19 04:33:45;;;;;;;9.35;6.75;;;17.50;99.30;;;;;;5092020;28;20067;-78
2021/05/19 04:36:11;;;;;;;10.90;6.15;;;17.60;98.20;;;;;;5089749;28;20031;-75
2021/05/19 04:38:37;;;;;;;10.98;6.85;;;17.50;96.80;;;;;;5094876;28;20030;-74
2021/05/19 04:41:04;;;;;;;10.77;7.78;;;17.40;96.40;;;;;;5097034;28;20041;-78
2021/05/19 04:43:31;;;;;;;9.10;6.32;;;17.40;96.70;;;;;;5094767;28;20043;-73
2021/05/19 04:45:56;;;;;;;9.05;5.75;;;17.40;96.90;;;;;;5090664;28;20028;-73
2021/05/19 04:48:22;;;;;;;9.90;6.85;;;17.50;96.30;;;;;;5098537;28;20046;-74
2021/05/19 04:50:48;;;;;;;11.35;6.88;;;17.50;95.70;;;;;;5085576;28;20028;-74
2021/05/19 04:53:14;;;;;;;10.73;6.50;;;17.40;95.10;;;;;;5081144;28;20028;-75
2021/05/19 04:55:40;;;;;;;13.00;7.20;;;17.20;94.50;;;;;;5096657;28;20444;-75
2021/05/19 04:58:06;;;;;;;10.32;6.85;;;17.00;94.40;;;;;;5094440;28;20082;-76
2021/05/19 05:00:33;;;;;;;16.13;8.20;;;16.80;94.50;;;;;;5093723;28;20551;-78
2021/05/19 05:02:59;;;;;;;12.85;7.65;;;16.50;94.40;;;;;;5088130;28;20592;-75
2021/05/19 05:05:25;;;;;;;11.18;5.75;;;16.30;94.90;;;;;;5100287;28;20031;-76
2021/05/19 05:07:50;;;;;;;9.38;6.45;;;16.20;95.40;;;;;;5084838;28;20027;-76
2021/05/19 05:10:16;;;;;;;9.15;5.95;;;16.10;95.60;;;;;;5096951;28;20026;-75
2021/05/19 05:12:43;;;;;;;12.10;6.68;;;16.10;95.80;;;;;;5090128;28;20032;-76
2021/05/19 05:15:14;;;;;;;12.43;7.40;;;16.10;96.30;;;;;;5084647;28;20044;-74
2021/05/19 05:17:40;;;;;;;11.43;6.15;;;16.10;97.00;;;;;;5102811;28;20032;-75
2021/05/19 05:20:09;;;;;;;9.88;6.10;;;16.20;97.00;;;;;;5094511;28;20451;-74
2021/05/19 05:22:35;;;;;;;9.70;4.68;;;16.20;96.90;;;;;;5094213;28;20035;-74
2021/05/19 05:25:01;;;;;;;9.73;5.47;;;16.20;96.50;;;;;;5096192;28;20034;-74
2021/05/19 05:27:26;;;;;;;6.95;5.30;;;16.30;96.80;;;;;;5102241;28;20023;-75
2021/05/19 05:29:52;;;;;;;11.68;5.55;;;16.50;97.50;;;;;;5110112;28;20015;-75
2021/05/19 05:32:18;;;;;;;12.18;5.60;;;16.80;98.40;;;;;;5116336;28;20036;-79
2021/05/19 05:34:44;;;;;;;11.35;4.93;;;17.20;98.20;;;;;;5134247;28;20022;-76
2021/05/19 05:37:10;;;;;;;9.52;5.90;;;17.60;97.00;;;;;;5110840;28;20482;-76
2021/05/19 05:39:35;;;;;;;9.57;6.07;;;18.00;96.00;;;;;;5110863;28;20055;-76
2021/05/19 05:42:01;;;;;;;9.07;5.82;;;18.20;94.20;;;;;;5092966;28;20032;-76
2021/05/19 05:44:27;;;;;;;8.60;4.40;;;18.20;92.40;;;;;;5091940;28;20020;-78
2021/05/19 05:46:53;;;;;;;9.70;4.70;;;18.10;91.70;;;;;;5092327;28;20024;-76
2021/05/19 05:49:18;;;;;;;7.20;4.80;;;18.00;91.30;;;;;;5092353;28;20035;-77
2021/05/19 05:51:44;;;;;;;11.32;5.20;;;17.90;91.40;;;;;;5112798;28;20019;-76
2021/05/19 05:54:11;;;;;;;7.93;4.45;;;18.00;92.20;;;;;;5100230;28;20389;-76
2021/05/19 05:56:40;;;;;;;6.32;3.47;;;18.20;92.00;;;;;;5106305;28;20466;-76
2021/05/19 05:59:06;;;;;;;5.88;3.60;;;18.30;90.80;;;;;;5104629;28;20028;-76
2021/05/19 06:01:32;;;;;;;6.75;3.88;;;18.50;90.40;;;;;;5099011;28;20141;-76
2021/05/19 06:03:57;;;;;;;7.00;4.40;;;18.50;89.10;;;;;;5104878;28;20105;-76
2021/05/19 06:06:23;;;;;;;7.88;3.65;;;18.50;89.50;;;;;;5091696;28;20057;-76
2021/05/19 06:08:49;;;;;;;7.78;3.80;;;18.70;90.10;;;;;;5092999;28;20016;-76
2021/05/19 06:11:14;;;;;;;7.30;4.00;;;19.40;91.80;;;;;;5092038;28;20030;-76
2021/05/19 06:13:40;;;;;;;6.45;3.00;;;20.20;90.80;;;;;;5091904;28;20024;-76
2021/05/19 06:16:06;;;;;;;10.23;3.65;;;20.40;83.70;;;;;;5102943;28;20051;-76
2021/05/19 06:18:31;;;;;;;6.25;2.90;;;20.60;82.70;;;;;;5098526;28;20038;-76
2021/05/19 06:20:57;;;;;;;7.72;3.30;;;21.00;81.00;;;;;;5103699;28;20036;-76
2021/05/19 06:23:23;;;;;;;4.78;2.40;;;21.10;79.10;;;;;;5093147;28;20065;-76
2021/05/19 06:25:48;;;;;;;6.72;2.90;;;21.20;77.40;;;;;;5093040;28;20052;-76
2021/05/19 06:28:14;;;;;;;4.55;2.85;;;21.50;78.00;;;;;;5100547;28;20051;-76
2021/05/19 06:30:40;;;;;;;7.65;2.85;;;22.00;78.50;;;;;;5096360;28;20032;-77
2021/05/19 06:33:05;;;;;;;4.35;2.30;;;22.90;78.10;;;;;;5093004;28;20481;-76
2021/05/19 06:35:31;;;;;;;7.13;2.55;;;23.50;73.10;;;;;;5091963;28;20028;-77
2021/05/19 06:37:57;;;;;;;5.28;2.60;;;23.70;70.20;;;;;;5092701;28;20032;-75
2021/05/19 06:40:22;;;;;;;7.65;2.70;;;23.90;70.40;;;;;;5093041;28;20035;-76
2021/05/19 06:42:49;;;;;;;4.07;2.05;;;24.50;70.40;;;;;;5091590;28;20127;-75
2021/05/19 06:45:15;;;;;;;7.15;2.60;;;25.30;67.70;;;;;;5091625;28;20111;-75
2021/05/19 06:47:41;;;;;;;6.05;2.28;;;25.40;64.60;;;;;;5091000;28;20024;-76
2021/05/19 06:50:07;;;;;;;5.18;2.63;;;24.90;62.70;;;;;;5100423;28;20028;-75
2021/05/19 06:52:33;;;;;;;7.00;3.17;;;24.40;61.80;;;;;;5102462;28;20032;-76
2021/05/19 06:55:01;;;;;;;5.07;2.80;;;23.80;62.70;;;;;;5096149;28;20530;-74
2021/05/19 06:57:27;;;;;;;4.35;2.28;;;23.30;63.80;;;;;;5096337;28;20027;-77
2021/05/19 06:59:53;;;;;;;5.20;2.30;;;23.20;63.70;;;;;;5094522;28;20024;-77
2021/05/19 07:02:19;;;;;;;7.68;2.97;;;22.90;63.50;;;;;;5086911;28;20474;-75
2021/05/19 07:04:44;;;;;;;8.95;3.22;;;22.80;65.00;;;;;;5097536;28;20051;-76
2021/05/19 07:07:10;;;;;;;4.80;2.83;;;22.90;66.20;;;;;;5095997;28;20058;-76
2021/05/19 07:09:36;;;;;;;5.15;2.40;;;23.30;66.20;;;;;;5098567;28;20028;-76
2021/05/19 07:12:03;;;;;;;5.70;2.50;;;23.70;65.80;;;;;;5105984;28;20123;-76
2021/05/19 07:14:28;;;;;;;4.45;2.38;;;24.50;65.60;;;;;;5095172;28;20020;-78
2021/05/19 07:16:56;;;;;;;4.63;2.10;;;25.10;63.80;;;;;;5104995;28;20130;-77
2021/05/19 07:19:22;;;;;;;4.55;2.08;;;25.40;61.20;;;;;;5096931;28;20023;-76
2021/05/19 07:21:48;;;;;;;4.95;2.50;;;25.40;60.60;;;;;;5094043;28;20127;-76
2021/05/19 07:24:15;;;;;;;4.32;2.20;;;25.20;60.50;;;;;;5104446;28;20052;-76
2021/05/19 07:26:42;;;;;;;5.50;2.50;;;24.90;60.20;;;;;;5110039;28;20026;-76
2021/05/19 07:29:09;;;;;;;6.13;2.42;;;24.50;59.80;;;;;;5100277;28;20028;-76
2021/05/19 07:31:35;;;;;;;4.75;2.70;;;24.00;60.30;;;;;;5095561;28;20036;-76
2021/05/19 07:34:03;;;;;;;4.78;2.50;;;23.40;61.10;;;;;;5096228;28;20066;-77
2021/05/19 07:36:29;;;;;;;4.95;2.45;;;22.90;61.80;;;;;;5094671;28;20440;-76
2021/05/19 07:38:56;;;;;;;6.75;2.33;;;22.60;63.00;;;;;;5094715;28;20115;-75
2021/05/19 07:41:23;;;;;;;5.90;2.60;;;22.20;64.40;;;;;;5095810;28;20028;-75
2021/05/19 07:43:49;;;;;;;6.47;2.70;;;22.00;64.90;;;;;;5094775;28;20059;-75
2021/05/19 07:46:15;;;;;;;4.35;2.30;;;21.90;65.30;;;;;;5095659;28;20065;-75
2021/05/19 07:48:41;;;;;;;8.23;3.00;;;22.20;66.30;;;;;;5094501;28;20419;-75
2021/05/19 07:51:07;;;;;;;6.18;2.80;;;22.30;65.30;;;;;;5094316;28;20486;-76
2021/05/19 07:53:33;;;;;;;3.85;2.67;;;22.10;64.80;;;;;;5094606;28;20110;-75
2021/05/19 07:58:40;;;;;;;6.90;3.05;;;21.70;65.40;;;;;;5095482;28;20061;-76
2021/05/19 08:03:32;;;;;;;9.02;3.55;;;21.20;66.00;;;;;;5094659;28;20020;-76
2021/05/19 08:05:58;;;;;;;10.30;3.88;;;20.90;67.20;;;;;;5094867;28;20123;-75
2021/05/19 08:08:24;;;;;;;10.48;6.70;;;20.70;68.40;;;;;;5094025;28;20024;-76
2021/05/19 08:10:50;;;;;;;10.70;7.15;;;20.40;69.50;;;;;;5095501;28;20024;-75
2021/05/19 08:13:16;;;;;;;11.80;5.97;;;20.30;70.60;;;;;;5096777;28;20030;-75
2021/05/19 08:15:41;;;;;;;9.55;3.80;;;20.20;71.30;;;;;;5108162;28;20064;-75
2021/05/19 08:18:11;;;;;;;12.75;4.38;;;20.20;71.90;;;;;;5095417;28;20050;-75
2021/05/19 08:20:38;;;;;;;8.35;2.97;;;20.20;73.10;;;;;;5093590;28;20459;-75
2021/05/19 08:23:04;;;;;;;8.40;3.67;;;20.20;73.20;;;;;;5094284;28;20355;-76
2021/05/19 08:25:30;;;;;;;8.02;3.25;;;20.20;73.70;;;;;;5094601;28;20032;-76
2021/05/19 08:27:56;;;;;;;13.95;3.80;;;20.40;73.90;;;;;;5095173;28;20051;-75
2021/05/19 08:30:23;;;;;;;11.82;6.13;;;20.60;73.70;;;;;;5095511;28;20103;-76
2021/05/19 08:32:49;;;;;;;9.77;3.97;;;20.80;73.70;;;;;;5093639;28;20031;-74
2021/05/19 08:35:15;;;;;;;8.95;4.22;;;20.90;72.30;;;;;;5093886;28;20032;-76
2021/05/19 08:37:40;;;;;;;5.90;4.03;;;20.80;71.90;;;;;;5095230;28;20036;-75
2021/05/19 08:40:07;;;;;;;7.97;3.72;;;20.80;72.90;;;;;;5095485;28;20032;-75
2021/05/19 08:42:37;;;;;;;8.35;3.83;;;20.90;73.10;;;;;;5095693;28;20039;-75
2021/05/19 08:45:05;;;;;;;6.75;3.75;;;20.90;72.90;;;;;;5100022;28;20025;-75
2021/05/19 08:47:31;;;;;;;8.25;4.10;;;20.90;72.60;;;;;;5088809;28;20028;-75
2021/05/19 08:49:57;;;;;;;7.53;3.15;;;20.80;72.60;;;;;;5088380;28;20047;-75
2021/05/19 08:52:22;;;;;;;7.43;3.75;;;20.70;71.40;;;;;;5075242;28;20032;-75
2021/05/19 08:54:50;;;;;;;5.57;3.15;;;20.40;71.50;;;;;;5074557;28;20417;-75
2021/05/19 08:57:17;;;;;;;9.00;3.38;;;20.10;71.70;;;;;;5079190;28;20435;-75
2021/05/19 08:59:44;;;;;;;5.20;2.80;;;20.00;72.60;;;;;;5085837;28;20447;-75
2021/05/19 09:02:12;;;;;;;5.63;3.15;;;19.90;72.20;;;;;;5115223;28;20039;-74
2021/05/19 09:04:38;;;;;;;7.28;3.60;;;19.80;72.50;;;;;;5099048;28;20024;-75
2021/05/19 09:07:05;;;;;;;6.50;4.18;;;19.60;73.10;;;;;;5100268;28;20066;-75
2021/05/19 09:09:37;;;;;;;8.15;4.40;;;19.80;74.60;;;;;;5095642;28;20028;-74
2021/05/19 09:12:14;;;;;;;9.50;6.03;;;19.90;73.60;;;;;;5096386;28;20113;-74
2021/05/19 09:14:45;;;;;;;12.63;6.82;;;19.90;73.50;;;;;;5093266;28;20027;-74
2021/05/19 09:17:28;;;;;;;13.07;6.03;;;19.90;74.00;;;;;;5092795;28;20031;-75
2021/05/19 09:20:06;;;;;;;8.15;5.68;;;20.20;75.60;;;;;;5094371;28;20027;-80
2021/05/19 09:22:40;;;;;;;10.32;5.93;;;20.90;74.90;;;;;;5081568;28;20493;-75
2021/05/19 09:25:25;;;;;;;12.75;6.47;;;21.20;72.90;;;;;;5092864;28;20035;-75
2021/05/19 09:27:52;;;;;;;7.10;5.10;;;22.00;73.40;;;;;;5092124;28;20028;-76
2021/05/19 09:30:38;;;;;;;8.25;5.45;;;22.50;69.30;;;;;;5092849;28;20119;-75
2021/05/19 09:33:22;;;;;;;9.60;5.97;;;22.50;68.00;;;;;;5093606;28;20035;-75
2021/05/19 09:36:21;;;;;;;11.02;7.72;;;22.50;66.60;;;;;;5108274;28;20046;-75
2021/05/19 09:38:52;;;;;;;13.00;8.57;;;21.90;66.90;;;;;;5092585;28;20024;-75
2021/05/19 09:41:31;;;;;;;12.68;8.20;;;21.50;67.20;;;;;;5098026;28;20032;-75
2021/05/19 09:43:59;;;;;;;13.55;8.25;;;21.30;68.50;;;;;;5102177;28;20026;-75
2021/05/19 09:49:15;;;;;;;16.83;10.25;;;21.10;69.20;;;;;;5093562;28;20052;-75
2021/05/19 09:51:51;;;;;;;12.13;9.23;;;20.90;69.50;;;;;;5101164;28;20439;-75
2021/05/19 09:54:35;;;;;;;16.23;10.00;;;20.70;69.50;;;;;;5093874;28;20024;-75
2021/05/19 09:57:09;;;;;;;12.48;8.45;;;20.40;70.20;;;;;;5079594;28;20039;-76
2021/05/19 09:59:35;;;;;;;17.83;11.07;;;20.20;70.50;;;;;;5092196;28;20458;-75
2021/05/19 10:02:03;;;;;;;18.70;11.45;;;20.10;71.20;;;;;;5093472;28;20064;-75
2021/05/19 10:04:33;;;;;;;17.30;11.45;;;19.90;71.70;;;;;;5091757;28;20052;-74
2021/05/19 10:06:59;;;;;;;20.63;12.98;;;19.80;72.20;;;;;;5091792;28;20024;-74
2021/05/19 10:09:28;;;;;;;21.80;13.93;;;19.70;73.10;;;;;;5093501;28;20103;-75
2021/05/19 10:11:55;;;;;;;21.05;12.82;;;19.50;73.20;;;;;;5106162;28;20020;-74
2021/05/19 10:14:24;;;;;;;19.52;13.57;;;19.40;73.40;;;;;;5093139;28;20023;-76
2021/05/19 10:17:08;;;;;;;21.02;13.60;;;19.20;74.00;;;;;;5091374;28;20024;-75
2021/05/19 10:19:38;;;;;;;19.85;12.90;;;19.20;74.90;;;;;;5093154;28;20030;-75
2021/05/19 10:22:07;;;;;;;22.08;14.55;;;19.20;75.70;;;;;;5092766;28;20137;-75
2021/05/19 10:27:25;;;;;;;19.90;12.25;;;19.20;75.10;;;;;;5092870;28;20028;-75
2021/05/19 10:29:57;;;;;;;22.40;13.38;;;19.10;74.70;;;;;;5092397;28;20412;-76
2021/05/19 10:32:28;;;;;;;25.92;15.57;;;19.00;74.90;;;;;;5092951;28;20020;-74
2021/05/19 10:34:56;;;;;;;25.38;13.95;;;19.10;76.30;;;;;;5092487;28;20021;-74
2021/05/19 10:37:31;;;;;;;22.63;11.77;;;19.20;76.00;;;;;;5078219;28;20029;-75
2021/05/19 10:40:18;;;;;;;18.90;11.17;;;19.20;74.90;;;;;;5072946;28;20111;-75
2021/05/19 10:42:55;;;;;;;19.00;12.38;;;19.10;74.50;;;;;;5092274;28;20282;-75
2021/05/19 10:45:21;;;;;;;20.75;12.00;;;19.10;74.80;;;;;;5100466;28;20024;-74
2021/05/19 10:47:48;;;;;;;18.27;12.20;;;19.10;74.50;;;;;;5100066;28;20020;-75
2021/05/19 10:50:37;;;;;;;15.73;9.93;;;19.10;74.60;;;;;;5102267;28;20527;-74
2021/05/19 10:58:52;;;;;;;19.88;11.75;;;19.20;75.30;;;;;;5081588;28;20147;-74
2021/05/19 11:01:41;;;;;;;20.15;13.52;;;19.40;75.40;;;;;;5094970;28;20028;-75
2021/05/19 11:04:18;;;;;;;17.63;11.32;;;19.70;74.70;;;;;;5091862;28;20020;-75
2021/05/19 11:06:56;;;;;;;17.08;11.15;;;19.90;73.90;;;;;;5092086;28;20043;-74
2021/05/19 11:09:23;;;;;;;14.75;9.40;;;20.20;74.70;;;;;;5103058;28;20111;-75
2021/05/19 11:11:49;;;;;;;17.92;10.25;;;20.70;73.70;;;;;;5094571;28;20398;-75
2021/05/19 11:14:34;;;;;;;16.00;8.75;;;21.00;71.60;;;;;;5093085;28;20024;-75
2021/05/19 11:17:19;;;;;;;11.13;7.37;;;20.90;70.10;;;;;;5092361;28;20119;-75
2021/05/19 11:19:45;;;;;;;16.95;8.43;;;20.80;69.80;;;;;;5091551;28;20683;-75
2021/05/19 11:22:15;;;;;;;17.15;9.20;;;20.80;70.00;;;;;;5095804;28;20123;-75
2021/05/19 11:24:58;;;;;;;17.48;9.65;;;20.80;70.00;;;;;;5100635;28;20099;-75
2021/05/19 11:27:28;;;;;;;17.15;9.50;;;20.70;69.50;;;;;;5091874;28;20024;-75
2021/05/19 11:29:55;;;;;;;12.38;8.68;;;20.60;69.40;;;;;;5091198;28;20024;-74
2021/05/19 11:32:29;;;;;;;12.23;8.02;;;20.60;69.30;;;;;;5092324;28;20046;-75
2021/05/19 11:35:18;;;;;;;17.48;8.00;;;20.50;69.40;;;;;;5090867;28;20416;-75
2021/05/19 11:38:05;;;;;;;15.93;8.15;;;20.50;68.90;;;;;;5093886;28;20474;-74
2021/05/19 11:40:48;;;;;;;17.90;9.13;;;20.50;69.30;;;;;;5095140;28;20035;-75
2021/05/19 11:43:15;;;;;;;13.20;8.50;;;20.40;69.30;;;;;;5082540;28;20028;-75
2021/05/19 11:45:46;;;;;;;16.92;7.95;;;20.40;69.20;;;;;;5094927;28;20020;-74
2021/05/19 11:48:24;;;;;;;13.48;7.18;;;20.40;69.20;;;;;;5094669;28;20031;-75
2021/05/19 11:50:50;;;;;;;11.18;7.22;;;20.40;68.90;;;;;;5095689;28;20024;-75
2021/05/19 11:53:16;;;;;;;10.52;7.05;;;20.40;68.60;;;;;;5094527;28;20024;-75
2021/05/19 11:55:51;;;;;;;13.32;7.38;;;20.50;68.70;;;;;;5107057;28;20407;-75
2021/05/19 11:58:32;;;;;;;15.00;7.72;;;20.60;68.30;;;;;;5097589;28;20020;-75
2021/05/19 12:01:06;;;;;;;15.13;7.43;;;20.60;68.20;;;;;;5094612;28;20028;-75
2021/05/19 12:03:35;;;;;;;12.47;6.50;;;20.70;67.60;;;;;;5094282;28;20027;-75
2021/05/19 12:06:12;;;;;;;12.68;7.05;;;20.70;67.20;;;;;;5094305;28;20039;-76
2021/05/19 12:08:43;;;;;;;11.18;5.90;;;20.80;67.40;;;;;;5095456;28;20028;-75
2021/05/19 12:11:14;;;;;;;11.02;5.85;;;20.80;67.00;;;;;;5094860;28;20470;-75
2021/05/19 12:13:42;;;;;;;18.25;5.75;;;21.00;66.80;;;;;;5094265;28;20528;-75
2021/05/19 12:16:18;;;;;;;12.95;6.97;;;21.20;66.90;;;;;;5095860;28;20082;-76
2021/05/19 12:18:59;;;;;;;;;;;21.30;66.10;;;;;;5091991;28;20025;-76
2021/05/19 12:21:26;;;;;;;10.43;6.43;;;21.30;66.70;;;;;;5074541;28;19912;-75
2021/05/19 12:23:51;;;;;;;12.23;6.47;;;21.30;65.90;;;;;;5077336;28;20032;-75
2021/05/19 12:26:19;;;;;;;9.80;6.60;;;21.20;65.60;;;;;;5116861;28;20027;-75
2021/05/19 12:28:45;;;;;;;14.15;7.82;;;21.10;65.70;;;;;;5104155;28;20114;-75
2021/05/19 12:31:25;;;;;;;11.30;6.50;;;21.20;66.10;;;;;;5081807;28;20044;-75
2021/05/19 12:33:51;;;;;;;11.73;6.47;;;21.20;66.10;;;;;;5090465;28;20030;-74
2021/05/19 12:36:29;;;;;;;10.43;6.75;;;21.20;66.40;;;;;;5106890;28;20027;-74
2021/05/19 12:38:59;;;;;;;12.43;7.18;;;21.10;65.70;;;;;;5108319;28;20462;-74
2021/05/19 12:41:45;;;;;;;13.50;5.90;;;21.10;65.90;;;;;;5096910;28;20088;-76
2021/05/19 12:44:19;;;;;;;10.60;6.13;;;21.20;66.00;;;;;;5097920;28;20024;-78
2021/05/19 12:47:02;;;;;;;14.70;6.03;;;21.20;65.30;;;;;;5083734;28;20016;-74
2021/05/19 12:49:29;;;;;;;11.73;5.80;;;21.10;64.80;;;;;;5092737;28;20024;-74
2021/05/19 12:51:58;;;;;;;10.00;5.97;;;21.10;64.50;;;;;;5093467;28;20052;-74
2021/05/19 12:54:32;;;;;;;12.40;5.55;;;21.10;64.30;;;;;;5092128;28;20024;-79
2021/05/19 12:57:18;;;;;;;12.60;5.70;;;21.20;63.60;;;;;;5080033;28;20028;-74
2021/05/19 13:00:12;;;;;;;11.35;6.07;;;21.20;62.90;;;;;;5094456;28;20032;-74
2021/05/19 13:02:38;;;;;;;6.80;3.72;;;21.20;62.90;;;;;;5093886;28;20043;-75